Colorado Springs (COS/KCOS)

Map

Information

Location
Colorado Springs, CO
Local Time
23:28 / 11:28 pm
GMT Time
05:28 / 5:28 am
Gates
Unassigned
No FAA reported delays
METAR KCOS 260454Z 25006KT 10SM FEW140 M05/M21 A2981 RMK AO2 SLP139 T10501206
TAF KCOS 260200Z 2602/2624 31008KT P6SM FEW090 SCT140 FM260300 35008KT P6SM SCT090 SCT200 FM261800 17010G20KT P6SM SCT070 BKN110
  • No charts available